sensor_id;sensor_type;location;lat;lon;timestamp;P1;durP1;ratioP1;P2;durP2;ratioP2
48861;SDS011;34681;49.188;-0.374;2023-06-19T00:00:01;11.57;;;10.40;;
48861;SDS011;34681;49.188;-0.374;2023-06-19T00:02:32;13.67;;;8.53;;
48861;SDS011;34681;49.188;-0.374;2023-06-19T00:04:57;10.67;;;9.63;;
48861;SDS011;34681;49.188;-0.374;2023-06-19T00:07:22;14.33;;;10.23;;
48861;SDS011;34681;49.188;-0.374;2023-06-19T00:09:48;11.10;;;10.07;;
48861;SDS011;34681;49.188;-0.374;2023-06-19T00:12:13;18.73;;;9.30;;
48861;SDS011;34681;49.188;-0.374;2023-06-19T00:14:39;11.07;;;9.37;;
48861;SDS011;34681;49.188;-0.374;2023-06-19T00:17:04;10.20;;;9.23;;
48861;SDS011;34681;49.188;-0.374;2023-06-19T00:19:32;10.70;;;9.80;;
48861;SDS011;34681;49.188;-0.374;2023-06-19T00:22:01;9.80;;;8.90;;
48861;SDS011;34681;49.188;-0.374;2023-06-19T00:24:27;12.83;;;8.67;;
48861;SDS011;34681;49.188;-0.374;2023-06-19T00:26:52;10.33;;;9.37;;
48861;SDS011;34681;49.188;-0.374;2023-06-19T00:29:18;9.37;;;8.57;;
48861;SDS011;34681;49.188;-0.374;2023-06-19T00:31:43;11.83;;;9.50;;
48861;SDS011;34681;49.188;-0.374;2023-06-19T00:34:08;10.10;;;9.30;;
48861;SDS011;34681;49.188;-0.374;2023-06-19T00:36:34;9.27;;;8.33;;
48861;SDS011;34681;49.188;-0.374;2023-06-19T00:39:05;10.70;;;8.90;;
48861;SDS011;34681;49.188;-0.374;2023-06-19T00:41:30;10.80;;;9.03;;
48861;SDS011;34681;49.188;-0.374;2023-06-19T00:43:57;14.30;;;9.37;;
48861;SDS011;34681;49.188;-0.374;2023-06-19T00:46:22;14.53;;;8.73;;
48861;SDS011;34681;49.188;-0.374;2023-06-19T00:48:47;9.80;;;8.70;;
48861;SDS011;34681;49.188;-0.374;2023-06-19T00:51:13;10.17;;;9.07;;
48861;SDS011;34681;49.188;-0.374;2023-06-19T00:53:39;15.07;;;8.40;;
48861;SDS011;34681;49.188;-0.374;2023-06-19T00:56:04;11.80;;;9.10;;
48861;SDS011;34681;49.188;-0.374;2023-06-19T00:58:30;9.97;;;8.97;;
48861;SDS011;34681;49.188;-0.374;2023-06-19T01:00:57;8.23;;;7.40;;
48861;SDS011;34681;49.188;-0.374;2023-06-19T01:03:22;9.70;;;8.77;;
48861;SDS011;34681;49.188;-0.374;2023-06-19T01:05:48;15.43;;;8.80;;
48861;SDS011;34681;49.188;-0.374;2023-06-19T01:08:35;13.53;;;9.20;;
48861;SDS011;34681;49.188;-0.374;2023-06-19T01:11:08;13.10;;;8.73;;
48861;SDS011;34681;49.188;-0.374;2023-06-19T01:16:15;9.40;;;8.47;;
48861;SDS011;34681;49.188;-0.374;2023-06-19T01:18:42;10.97;;;8.40;;
48861;SDS011;34681;49.188;-0.374;2023-06-19T01:21:15;9.90;;;7.53;;
48861;SDS011;34681;49.188;-0.374;2023-06-19T01:23:41;10.07;;;9.13;;
48861;SDS011;34681;49.188;-0.374;2023-06-19T01:26:08;12.37;;;7.67;;
48861;SDS011;34681;49.188;-0.374;2023-06-19T01:28:34;11.17;;;7.63;;
48861;SDS011;34681;49.188;-0.374;2023-06-19T01:31:02;12.20;;;8.30;;
48861;SDS011;34681;49.188;-0.374;2023-06-19T01:33:30;14.27;;;8.67;;
48861;SDS011;34681;49.188;-0.374;2023-06-19T01:35:58;11.63;;;7.40;;
48861;SDS011;34681;49.188;-0.374;2023-06-19T01:38:26;8.43;;;7.63;;
48861;SDS011;34681;49.188;-0.374;2023-06-19T01:40:54;9.07;;;7.13;;
48861;SDS011;34681;49.188;-0.374;2023-06-19T01:43:21;11.73;;;7.50;;
48861;SDS011;34681;49.188;-0.374;2023-06-19T01:45:48;13.70;;;7.87;;
48861;SDS011;34681;49.188;-0.374;2023-06-19T01:48:14;13.53;;;8.03;;
48861;SDS011;34681;49.188;-0.374;2023-06-19T01:50:40;11.10;;;8.03;;
48861;SDS011;34681;49.188;-0.374;2023-06-19T01:53:10;11.07;;;7.67;;
48861;SDS011;34681;49.188;-0.374;2023-06-19T01:55:35;11.63;;;7.43;;
48861;SDS011;34681;49.188;-0.374;2023-06-19T01:58:00;9.10;;;7.33;;
48861;SDS011;34681;49.188;-0.374;2023-06-19T02:00:26;8.73;;;7.80;;
48861;SDS011;34681;49.188;-0.374;2023-06-19T02:02:51;8.87;;;7.17;;
48861;SDS011;34681;49.188;-0.374;2023-06-19T02:05:16;8.30;;;7.00;;
48861;SDS011;34681;49.188;-0.374;2023-06-19T02:07:42;8.90;;;7.50;;
48861;SDS011;34681;49.188;-0.374;2023-06-19T02:10:07;7.50;;;6.87;;
48861;SDS011;34681;49.188;-0.374;2023-06-19T02:12:33;8.10;;;7.20;;
48861;SDS011;34681;49.188;-0.374;2023-06-19T02:14:58;11.17;;;7.30;;
48861;SDS011;34681;49.188;-0.374;2023-06-19T02:17:24;8.33;;;7.33;;
48861;SDS011;34681;49.188;-0.374;2023-06-19T02:19:49;8.10;;;7.30;;
48861;SDS011;34681;49.188;-0.374;2023-06-19T02:22:14;7.37;;;6.70;;
48861;SDS011;34681;49.188;-0.374;2023-06-19T02:24:40;6.90;;;6.30;;
48861;SDS011;34681;49.188;-0.374;2023-06-19T02:27:05;7.53;;;6.20;;
48861;SDS011;34681;49.188;-0.374;2023-06-19T02:29:31;10.73;;;7.00;;
48861;SDS011;34681;49.188;-0.374;2023-06-19T02:31:58;7.03;;;6.27;;
48861;SDS011;34681;49.188;-0.374;2023-06-19T02:34:24;14.90;;;7.30;;
48861;SDS011;34681;49.188;-0.374;2023-06-19T02:36:50;8.10;;;7.23;;
48861;SDS011;34681;49.188;-0.374;2023-06-19T02:39:15;7.27;;;5.70;;
48861;SDS011;34681;49.188;-0.374;2023-06-19T02:41:41;6.43;;;5.77;;
48861;SDS011;34681;49.188;-0.374;2023-06-19T02:44:10;8.20;;;6.60;;
48861;SDS011;34681;49.188;-0.374;2023-06-19T02:46:39;7.60;;;6.03;;
48861;SDS011;34681;49.188;-0.374;2023-06-19T02:49:05;7.90;;;6.90;;
48861;SDS011;34681;49.188;-0.374;2023-06-19T02:51:30;7.20;;;6.53;;
48861;SDS011;34681;49.188;-0.374;2023-06-19T02:53:55;7.40;;;6.63;;
48861;SDS011;34681;49.188;-0.374;2023-06-19T02:56:21;9.00;;;6.10;;
48861;SDS011;34681;49.188;-0.374;2023-06-19T02:58:47;11.07;;;6.20;;
48861;SDS011;34681;49.188;-0.374;2023-06-19T03:01:12;5.97;;;5.53;;
48861;SDS011;34681;49.188;-0.374;2023-06-19T03:03:37;8.87;;;6.37;;
48861;SDS011;34681;49.188;-0.374;2023-06-19T03:06:04;7.10;;;6.00;;
48861;SDS011;34681;49.188;-0.374;2023-06-19T03:08:30;8.60;;;5.97;;
48861;SDS011;34681;49.188;-0.374;2023-06-19T03:10:56;8.77;;;5.60;;
48861;SDS011;34681;49.188;-0.374;2023-06-19T03:13:22;9.30;;;6.20;;
48861;SDS011;34681;49.188;-0.374;2023-06-19T03:15:47;8.33;;;6.37;;
48861;SDS011;34681;49.188;-0.374;2023-06-19T03:18:13;9.83;;;6.70;;
48861;SDS011;34681;49.188;-0.374;2023-06-19T03:20:38;7.83;;;6.30;;
48861;SDS011;34681;49.188;-0.374;2023-06-19T03:23:03;9.33;;;6.57;;
48861;SDS011;34681;49.188;-0.374;2023-06-19T03:25:29;7.93;;;6.57;;
48861;SDS011;34681;49.188;-0.374;2023-06-19T03:27:59;8.30;;;7.03;;
48861;SDS011;34681;49.188;-0.374;2023-06-19T03:30:26;7.73;;;6.30;;
48861;SDS011;34681;49.188;-0.374;2023-06-19T03:32:51;10.17;;;6.73;;
48861;SDS011;34681;49.188;-0.374;2023-06-19T03:35:16;7.17;;;5.87;;
48861;SDS011;34681;49.188;-0.374;2023-06-19T03:37:42;6.90;;;6.20;;
48861;SDS011;34681;49.188;-0.374;2023-06-19T03:40:07;6.37;;;5.87;;
48861;SDS011;34681;49.188;-0.374;2023-06-19T03:42:38;6.77;;;6.20;;
48861;SDS011;34681;49.188;-0.374;2023-06-19T03:45:03;9.20;;;6.97;;
48861;SDS011;34681;49.188;-0.374;2023-06-19T03:47:29;9.03;;;6.20;;
48861;SDS011;34681;49.188;-0.374;2023-06-19T03:49:54;6.60;;;6.10;;
48861;SDS011;34681;49.188;-0.374;2023-06-19T03:52:19;8.93;;;6.70;;
48861;SDS011;34681;49.188;-0.374;2023-06-19T03:54:45;7.20;;;6.60;;
48861;SDS011;34681;49.188;-0.374;2023-06-19T03:57:10;8.70;;;5.80;;
48861;SDS011;34681;49.188;-0.374;2023-06-19T03:59:35;9.23;;;5.83;;
48861;SDS011;34681;49.188;-0.374;2023-06-19T04:02:01;7.23;;;6.63;;
48861;SDS011;34681;49.188;-0.374;2023-06-19T04:04:26;8.33;;;6.90;;
48861;SDS011;34681;49.188;-0.374;2023-06-19T04:06:51;7.47;;;6.77;;
48861;SDS011;34681;49.188;-0.374;2023-06-19T04:09:16;7.37;;;6.57;;
48861;SDS011;34681;49.188;-0.374;2023-06-19T04:11:42;12.33;;;6.40;;
48861;SDS011;34681;49.188;-0.374;2023-06-19T04:14:07;11.03;;;6.80;;
48861;SDS011;34681;49.188;-0.374;2023-06-19T04:16:32;7.30;;;6.60;;
48861;SDS011;34681;49.188;-0.374;2023-06-19T04:18:58;9.77;;;6.60;;
48861;SDS011;34681;49.188;-0.374;2023-06-19T04:21:23;8.83;;;7.17;;
48861;SDS011;34681;49.188;-0.374;2023-06-19T04:23:49;9.30;;;6.80;;
48861;SDS011;34681;49.188;-0.374;2023-06-19T04:26:14;7.40;;;6.70;;
48861;SDS011;34681;49.188;-0.374;2023-06-19T04:28:40;7.63;;;6.90;;
48861;SDS011;34681;49.188;-0.374;2023-06-19T04:31:06;7.23;;;6.40;;
48861;SDS011;34681;49.188;-0.374;2023-06-19T04:33:32;7.50;;;6.77;;
48861;SDS011;34681;49.188;-0.374;2023-06-19T04:35:57;7.53;;;6.60;;
48861;SDS011;34681;49.188;-0.374;2023-06-19T04:38:23;10.40;;;7.77;;
48861;SDS011;34681;49.188;-0.374;2023-06-19T04:40:49;9.20;;;7.27;;
48861;SDS011;34681;49.188;-0.374;2023-06-19T04:43:15;8.53;;;7.30;;
48861;SDS011;34681;49.188;-0.374;2023-06-19T04:45:40;6.87;;;6.27;;
48861;SDS011;34681;49.188;-0.374;2023-06-19T04:48:05;10.00;;;6.77;;
48861;SDS011;34681;49.188;-0.374;2023-06-19T04:50:31;7.60;;;6.80;;
48861;SDS011;34681;49.188;-0.374;2023-06-19T04:52:56;9.53;;;7.20;;
48861;SDS011;34681;49.188;-0.374;2023-06-19T04:55:21;10.93;;;6.90;;
48861;SDS011;34681;49.188;-0.374;2023-06-19T04:57:50;7.00;;;6.37;;
48861;SDS011;34681;49.188;-0.374;2023-06-19T05:00:15;9.40;;;7.00;;
48861;SDS011;34681;49.188;-0.374;2023-06-19T05:02:43;11.20;;;6.37;;
48861;SDS011;34681;49.188;-0.374;2023-06-19T05:05:10;6.80;;;6.30;;
48861;SDS011;34681;49.188;-0.374;2023-06-19T05:07:36;8.13;;;7.10;;
48861;SDS011;34681;49.188;-0.374;2023-06-19T05:10:01;9.13;;;7.40;;
48861;SDS011;34681;49.188;-0.374;2023-06-19T05:12:27;7.43;;;6.80;;
48861;SDS011;34681;49.188;-0.374;2023-06-19T05:14:52;7.23;;;6.47;;
48861;SDS011;34681;49.188;-0.374;2023-06-19T05:17:18;7.63;;;6.83;;
48861;SDS011;34681;49.188;-0.374;2023-06-19T05:19:43;8.37;;;7.53;;
48861;SDS011;34681;49.188;-0.374;2023-06-19T05:22:08;6.93;;;6.27;;
48861;SDS011;34681;49.188;-0.374;2023-06-19T05:24:34;6.10;;;5.50;;
48861;SDS011;34681;49.188;-0.374;2023-06-19T05:26:59;8.20;;;7.30;;
48861;SDS011;34681;49.188;-0.374;2023-06-19T05:29:24;9.30;;;6.77;;
48861;SDS011;34681;49.188;-0.374;2023-06-19T05:31:50;15.77;;;6.90;;
48861;SDS011;34681;49.188;-0.374;2023-06-19T05:34:16;6.47;;;5.87;;
48861;SDS011;34681;49.188;-0.374;2023-06-19T05:36:41;7.33;;;6.17;;
48861;SDS011;34681;49.188;-0.374;2023-06-19T05:39:10;7.30;;;6.17;;
48861;SDS011;34681;49.188;-0.374;2023-06-19T05:41:35;12.40;;;6.07;;
48861;SDS011;34681;49.188;-0.374;2023-06-19T05:44:01;9.67;;;6.40;;
48861;SDS011;34681;49.188;-0.374;2023-06-19T05:46:29;9.50;;;6.83;;
48861;SDS011;34681;49.188;-0.374;2023-06-19T05:49:10;6.03;;;5.43;;
48861;SDS011;34681;49.188;-0.374;2023-06-19T05:51:36;7.13;;;6.43;;
48861;SDS011;34681;49.188;-0.374;2023-06-19T05:54:01;9.73;;;6.40;;
48861;SDS011;34681;49.188;-0.374;2023-06-19T05:56:32;7.73;;;5.90;;
48861;SDS011;34681;49.188;-0.374;2023-06-19T05:58:58;6.97;;;5.97;;
48861;SDS011;34681;49.188;-0.374;2023-06-19T06:01:25;5.70;;;5.20;;
48861;SDS011;34681;49.188;-0.374;2023-06-19T06:03:53;5.93;;;5.33;;
48861;SDS011;34681;49.188;-0.374;2023-06-19T06:06:19;6.47;;;5.70;;
48861;SDS011;34681;49.188;-0.374;2023-06-19T06:08:44;5.70;;;5.20;;
48861;SDS011;34681;49.188;-0.374;2023-06-19T06:11:09;5.53;;;4.93;;
48861;SDS011;34681;49.188;-0.374;2023-06-19T06:13:35;7.03;;;5.43;;
48861;SDS011;34681;49.188;-0.374;2023-06-19T06:16:00;7.40;;;5.33;;
48861;SDS011;34681;49.188;-0.374;2023-06-19T06:18:26;7.13;;;5.63;;
48861;SDS011;34681;49.188;-0.374;2023-06-19T06:20:51;6.60;;;6.00;;
48861;SDS011;34681;49.188;-0.374;2023-06-19T06:23:16;6.80;;;6.20;;
48861;SDS011;34681;49.188;-0.374;2023-06-19T06:25:42;5.83;;;5.30;;
48861;SDS011;34681;49.188;-0.374;2023-06-19T06:28:07;6.90;;;5.37;;
48861;SDS011;34681;49.188;-0.374;2023-06-19T06:30:33;12.37;;;5.73;;
48861;SDS011;34681;49.188;-0.374;2023-06-19T06:32:58;7.50;;;5.97;;
48861;SDS011;34681;49.188;-0.374;2023-06-19T06:35:23;7.93;;;4.93;;
48861;SDS011;34681;49.188;-0.374;2023-06-19T06:37:49;5.10;;;4.60;;
48861;SDS011;34681;49.188;-0.374;2023-06-19T06:40:15;6.20;;;5.60;;
48861;SDS011;34681;49.188;-0.374;2023-06-19T06:42:40;6.43;;;4.97;;
48861;SDS011;34681;49.188;-0.374;2023-06-19T06:45:06;5.43;;;4.40;;
48861;SDS011;34681;49.188;-0.374;2023-06-19T06:47:32;6.20;;;5.60;;
48861;SDS011;34681;49.188;-0.374;2023-06-19T06:49:58;7.20;;;4.73;;
48861;SDS011;34681;49.188;-0.374;2023-06-19T06:52:23;5.60;;;5.20;;
48861;SDS011;34681;49.188;-0.374;2023-06-19T06:54:49;6.07;;;5.50;;
48861;SDS011;34681;49.188;-0.374;2023-06-19T06:57:14;5.27;;;4.73;;
48861;SDS011;34681;49.188;-0.374;2023-06-19T06:59:40;5.93;;;5.37;;
48861;SDS011;34681;49.188;-0.374;2023-06-19T07:02:05;6.23;;;5.60;;
48861;SDS011;34681;49.188;-0.374;2023-06-19T07:04:30;5.73;;;5.33;;
48861;SDS011;34681;49.188;-0.374;2023-06-19T07:06:56;11.60;;;5.63;;
48861;SDS011;34681;49.188;-0.374;2023-06-19T07:09:23;6.87;;;5.47;;
48861;SDS011;34681;49.188;-0.374;2023-06-19T07:11:48;6.20;;;5.50;;
48861;SDS011;34681;49.188;-0.374;2023-06-19T07:14:14;6.10;;;5.20;;
48861;SDS011;34681;49.188;-0.374;2023-06-19T07:16:42;6.83;;;5.70;;
48861;SDS011;34681;49.188;-0.374;2023-06-19T07:19:08;8.00;;;5.20;;
48861;SDS011;34681;49.188;-0.374;2023-06-19T07:21:33;5.03;;;4.60;;
48861;SDS011;34681;49.188;-0.374;2023-06-19T07:23:59;5.83;;;5.30;;
48861;SDS011;34681;49.188;-0.374;2023-06-19T07:26:24;7.47;;;5.10;;
48861;SDS011;34681;49.188;-0.374;2023-06-19T07:28:50;5.60;;;5.10;;
48861;SDS011;34681;49.188;-0.374;2023-06-19T07:31:15;6.30;;;5.20;;
48861;SDS011;34681;49.188;-0.374;2023-06-19T07:33:41;5.63;;;5.23;;
48861;SDS011;34681;49.188;-0.374;2023-06-19T07:36:06;4.90;;;4.53;;
48861;SDS011;34681;49.188;-0.374;2023-06-19T07:38:31;6.30;;;4.60;;
48861;SDS011;34681;49.188;-0.374;2023-06-19T07:40:57;5.37;;;4.97;;
48861;SDS011;34681;49.188;-0.374;2023-06-19T07:43:23;5.77;;;5.27;;
48861;SDS011;34681;49.188;-0.374;2023-06-19T07:45:48;9.50;;;6.20;;
48861;SDS011;34681;49.188;-0.374;2023-06-19T07:48:14;10.33;;;5.67;;
48861;SDS011;34681;49.188;-0.374;2023-06-19T07:50:40;6.40;;;5.67;;
48861;SDS011;34681;49.188;-0.374;2023-06-19T07:53:05;7.83;;;6.57;;
48861;SDS011;34681;49.188;-0.374;2023-06-19T07:55:30;5.70;;;5.20;;
48861;SDS011;34681;49.188;-0.374;2023-06-19T07:57:56;6.80;;;6.20;;
48861;SDS011;34681;49.188;-0.374;2023-06-19T08:00:22;7.13;;;6.20;;
48861;SDS011;34681;49.188;-0.374;2023-06-19T08:02:49;6.30;;;5.43;;
48861;SDS011;34681;49.188;-0.374;2023-06-19T08:05:15;6.40;;;5.90;;
48861;SDS011;34681;49.188;-0.374;2023-06-19T08:07:40;6.40;;;5.87;;
48861;SDS011;34681;49.188;-0.374;2023-06-19T08:10:06;6.80;;;5.63;;
48861;SDS011;34681;49.188;-0.374;2023-06-19T08:12:32;5.67;;;5.17;;
48861;SDS011;34681;49.188;-0.374;2023-06-19T08:14:58;5.47;;;5.00;;
48861;SDS011;34681;49.188;-0.374;2023-06-19T08:17:23;5.17;;;4.70;;
48861;SDS011;34681;49.188;-0.374;2023-06-19T08:19:49;5.27;;;4.80;;
48861;SDS011;34681;49.188;-0.374;2023-06-19T08:22:14;7.80;;;5.47;;
48861;SDS011;34681;49.188;-0.374;2023-06-19T08:24:40;6.00;;;4.70;;
48861;SDS011;34681;49.188;-0.374;2023-06-19T08:27:06;3.80;;;3.50;;
48861;SDS011;34681;49.188;-0.374;2023-06-19T08:29:31;7.10;;;4.00;;
48861;SDS011;34681;49.188;-0.374;2023-06-19T08:31:56;6.43;;;4.80;;
48861;SDS011;34681;49.188;-0.374;2023-06-19T08:34:22;4.43;;;4.10;;
48861;SDS011;34681;49.188;-0.374;2023-06-19T08:36:47;4.13;;;3.80;;
48861;SDS011;34681;49.188;-0.374;2023-06-19T08:39:13;4.10;;;3.80;;
48861;SDS011;34681;49.188;-0.374;2023-06-19T08:41:38;4.70;;;4.30;;
48861;SDS011;34681;49.188;-0.374;2023-06-19T08:44:04;4.17;;;3.87;;
48861;SDS011;34681;49.188;-0.374;2023-06-19T08:46:30;4.60;;;4.27;;
48861;SDS011;34681;49.188;-0.374;2023-06-19T08:48:56;4.90;;;4.50;;
48861;SDS011;34681;49.188;-0.374;2023-06-19T08:51:22;4.43;;;3.90;;
48861;SDS011;34681;49.188;-0.374;2023-06-19T08:53:48;4.33;;;4.03;;
48861;SDS011;34681;49.188;-0.374;2023-06-19T08:56:17;4.67;;;4.27;;
48861;SDS011;34681;49.188;-0.374;2023-06-19T08:58:42;4.10;;;3.80;;
48861;SDS011;34681;49.188;-0.374;2023-06-19T09:01:08;4.70;;;4.30;;
48861;SDS011;34681;49.188;-0.374;2023-06-19T09:03:33;4.70;;;4.27;;
48861;SDS011;34681;49.188;-0.374;2023-06-19T09:06:02;5.60;;;4.37;;
48861;SDS011;34681;49.188;-0.374;2023-06-19T09:08:39;5.00;;;4.47;;
48861;SDS011;34681;49.188;-0.374;2023-06-19T09:11:05;4.70;;;4.10;;
48861;SDS011;34681;49.188;-0.374;2023-06-19T09:13:31;4.83;;;4.40;;
48861;SDS011;34681;49.188;-0.374;2023-06-19T09:16:01;4.00;;;3.70;;
48861;SDS011;34681;49.188;-0.374;2023-06-19T09:18:28;5.40;;;4.40;;
48861;SDS011;34681;49.188;-0.374;2023-06-19T09:20:55;4.37;;;3.97;;
48861;SDS011;34681;49.188;-0.374;2023-06-19T09:23:20;4.97;;;4.57;;
48861;SDS011;34681;49.188;-0.374;2023-06-19T09:25:50;5.30;;;4.90;;
48861;SDS011;34681;49.188;-0.374;2023-06-19T09:28:26;4.80;;;4.50;;
48861;SDS011;34681;49.188;-0.374;2023-06-19T09:30:56;5.13;;;4.83;;
48861;SDS011;34681;49.188;-0.374;2023-06-19T09:33:27;4.90;;;4.60;;
48861;SDS011;34681;49.188;-0.374;2023-06-19T09:35:57;5.17;;;4.27;;
48861;SDS011;34681;49.188;-0.374;2023-06-19T09:38:25;5.27;;;4.87;;
48861;SDS011;34681;49.188;-0.374;2023-06-19T09:40:52;7.70;;;6.83;;
48861;SDS011;34681;49.188;-0.374;2023-06-19T09:43:19;7.83;;;7.10;;
48861;SDS011;34681;49.188;-0.374;2023-06-19T09:45:48;9.27;;;8.17;;
48861;SDS011;34681;49.188;-0.374;2023-06-19T09:48:18;20.50;;;16.27;;
48861;SDS011;34681;49.188;-0.374;2023-06-19T09:50:51;48.50;;;37.70;;
48861;SDS011;34681;49.188;-0.374;2023-06-19T09:53:19;10.93;;;8.23;;
48861;SDS011;34681;49.188;-0.374;2023-06-19T09:55:46;5.43;;;5.00;;
48861;SDS011;34681;49.188;-0.374;2023-06-19T09:58:13;4.50;;;4.20;;
48861;SDS011;34681;49.188;-0.374;2023-06-19T10:00:39;4.53;;;4.23;;
48861;SDS011;34681;49.188;-0.374;2023-06-19T10:03:10;4.67;;;4.30;;
48861;SDS011;34681;49.188;-0.374;2023-06-19T10:05:36;5.60;;;4.30;;
48861;SDS011;34681;49.188;-0.374;2023-06-19T10:08:02;5.67;;;4.80;;
48861;SDS011;34681;49.188;-0.374;2023-06-19T10:10:29;5.93;;;4.13;;
48861;SDS011;34681;49.188;-0.374;2023-06-19T10:12:55;4.60;;;4.23;;
48861;SDS011;34681;49.188;-0.374;2023-06-19T10:15:23;5.40;;;4.90;;
48861;SDS011;34681;49.188;-0.374;2023-06-19T10:17:53;4.83;;;4.43;;
48861;SDS011;34681;49.188;-0.374;2023-06-19T10:20:32;5.10;;;4.73;;
48861;SDS011;34681;49.188;-0.374;2023-06-19T10:23:06;5.10;;;4.67;;
48861;SDS011;34681;49.188;-0.374;2023-06-19T10:25:36;4.83;;;4.50;;
48861;SDS011;34681;49.188;-0.374;2023-06-19T10:28:03;5.43;;;5.00;;
48861;SDS011;34681;49.188;-0.374;2023-06-19T10:30:32;3.90;;;3.50;;
48861;SDS011;34681;49.188;-0.374;2023-06-19T10:32:59;4.10;;;3.60;;
48861;SDS011;34681;49.188;-0.374;2023-06-19T10:35:29;3.27;;;3.07;;
48861;SDS011;34681;49.188;-0.374;2023-06-19T10:37:54;4.03;;;3.63;;
48861;SDS011;34681;49.188;-0.374;2023-06-19T10:40:19;3.33;;;2.93;;
48861;SDS011;34681;49.188;-0.374;2023-06-19T10:42:45;3.90;;;3.50;;
48861;SDS011;34681;49.188;-0.374;2023-06-19T10:45:12;3.80;;;3.50;;
48861;SDS011;34681;49.188;-0.374;2023-06-19T10:47:40;5.27;;;3.77;;
48861;SDS011;34681;49.188;-0.374;2023-06-19T10:50:10;3.77;;;3.40;;
48861;SDS011;34681;49.188;-0.374;2023-06-19T10:52:39;3.70;;;3.20;;
48861;SDS011;34681;49.188;-0.374;2023-06-19T10:55:05;3.80;;;3.50;;
48861;SDS011;34681;49.188;-0.374;2023-06-19T10:57:31;3.07;;;2.87;;
48861;SDS011;34681;49.188;-0.374;2023-06-19T10:59:57;3.53;;;3.30;;
48861;SDS011;34681;49.188;-0.374;2023-06-19T11:02:26;4.03;;;3.67;;
48861;SDS011;34681;49.188;-0.374;2023-06-19T11:04:52;3.67;;;3.37;;
48861;SDS011;34681;49.188;-0.374;2023-06-19T11:07:18;3.27;;;2.97;;
48861;SDS011;34681;49.188;-0.374;2023-06-19T11:09:44;3.90;;;3.70;;
48861;SDS011;34681;49.188;-0.374;2023-06-19T11:12:09;3.40;;;3.20;;
48861;SDS011;34681;49.188;-0.374;2023-06-19T11:14:35;2.53;;;2.43;;
48861;SDS011;34681;49.188;-0.374;2023-06-19T11:17:05;6.13;;;2.70;;
48861;SDS011;34681;49.188;-0.374;2023-06-19T11:19:31;2.73;;;2.60;;
48861;SDS011;34681;49.188;-0.374;2023-06-19T11:22:01;2.97;;;2.73;;
48861;SDS011;34681;49.188;-0.374;2023-06-19T11:24:28;2.77;;;2.57;;
48861;SDS011;34681;49.188;-0.374;2023-06-19T11:26:55;3.17;;;2.97;;
48861;SDS011;34681;49.188;-0.374;2023-06-19T11:29:24;3.17;;;2.90;;
48861;SDS011;34681;49.188;-0.374;2023-06-19T11:32:03;3.60;;;3.30;;
48861;SDS011;34681;49.188;-0.374;2023-06-19T11:34:34;3.40;;;3.10;;
48861;SDS011;34681;49.188;-0.374;2023-06-19T11:37:02;3.60;;;3.30;;
48861;SDS011;34681;49.188;-0.374;2023-06-19T11:39:36;3.53;;;3.20;;
48861;SDS011;34681;49.188;-0.374;2023-06-19T11:42:01;3.60;;;3.40;;
48861;SDS011;34681;49.188;-0.374;2023-06-19T11:44:28;3.27;;;2.97;;
48861;SDS011;34681;49.188;-0.374;2023-06-19T11:46:56;4.87;;;3.30;;
48861;SDS011;34681;49.188;-0.374;2023-06-19T11:49:22;4.50;;;2.93;;
48861;SDS011;34681;49.188;-0.374;2023-06-19T11:51:48;3.60;;;3.30;;
48861;SDS011;34681;49.188;-0.374;2023-06-19T11:54:13;3.60;;;3.30;;
48861;SDS011;34681;49.188;-0.374;2023-06-19T11:56:45;3.53;;;3.33;;
48861;SDS011;34681;49.188;-0.374;2023-06-19T11:59:12;3.50;;;3.20;;
48861;SDS011;34681;49.188;-0.374;2023-06-19T12:01:39;3.27;;;2.97;;
48861;SDS011;34681;49.188;-0.374;2023-06-19T12:04:04;3.23;;;3.03;;
48861;SDS011;34681;49.188;-0.374;2023-06-19T12:06:30;4.47;;;3.43;;
48861;SDS011;34681;49.188;-0.374;2023-06-19T12:08:55;3.07;;;2.87;;
48861;SDS011;34681;49.188;-0.374;2023-06-19T12:11:21;3.60;;;3.30;;
48861;SDS011;34681;49.188;-0.374;2023-06-19T12:13:47;3.33;;;3.13;;
48861;SDS011;34681;49.188;-0.374;2023-06-19T12:16:12;3.60;;;3.37;;
48861;SDS011;34681;49.188;-0.374;2023-06-19T12:18:39;3.23;;;2.90;;
48861;SDS011;34681;49.188;-0.374;2023-06-19T12:21:04;3.37;;;3.07;;
48861;SDS011;34681;49.188;-0.374;2023-06-19T12:23:30;3.10;;;2.90;;
48861;SDS011;34681;49.188;-0.374;2023-06-19T12:25:55;3.60;;;3.30;;
48861;SDS011;34681;49.188;-0.374;2023-06-19T12:28:21;3.23;;;3.03;;
48861;SDS011;34681;49.188;-0.374;2023-06-19T12:30:47;3.33;;;3.07;;
48861;SDS011;34681;49.188;-0.374;2023-06-19T12:33:15;3.20;;;3.00;;
48861;SDS011;34681;49.188;-0.374;2023-06-19T12:35:42;2.97;;;2.77;;
48861;SDS011;34681;49.188;-0.374;2023-06-19T12:38:08;3.53;;;3.23;;
48861;SDS011;34681;49.188;-0.374;2023-06-19T12:40:34;3.63;;;3.43;;
48861;SDS011;34681;49.188;-0.374;2023-06-19T12:43:01;3.47;;;3.17;;
48861;SDS011;34681;49.188;-0.374;2023-06-19T12:45:26;4.37;;;4.07;;
48861;SDS011;34681;49.188;-0.374;2023-06-19T12:47:52;3.60;;;3.40;;
48861;SDS011;34681;49.188;-0.374;2023-06-19T12:50:17;3.33;;;3.13;;
48861;SDS011;34681;49.188;-0.374;2023-06-19T12:52:42;3.20;;;3.00;;
48861;SDS011;34681;49.188;-0.374;2023-06-19T12:55:08;3.80;;;3.50;;
48861;SDS011;34681;49.188;-0.374;2023-06-19T12:57:33;4.40;;;3.40;;
48861;SDS011;34681;49.188;-0.374;2023-06-19T12:59:59;3.73;;;3.43;;
48861;SDS011;34681;49.188;-0.374;2023-06-19T13:02:24;4.60;;;4.20;;
48861;SDS011;34681;49.188;-0.374;2023-06-19T13:04:49;3.60;;;3.30;;
48861;SDS011;34681;49.188;-0.374;2023-06-19T13:07:15;3.83;;;3.53;;
48861;SDS011;34681;49.188;-0.374;2023-06-19T13:09:40;3.70;;;3.40;;
48861;SDS011;34681;49.188;-0.374;2023-06-19T13:12:06;4.10;;;3.77;;
48861;SDS011;34681;49.188;-0.374;2023-06-19T13:14:32;3.83;;;3.60;;
48861;SDS011;34681;49.188;-0.374;2023-06-19T13:16:57;4.03;;;3.73;;
48861;SDS011;34681;49.188;-0.374;2023-06-19T13:19:23;4.10;;;3.80;;
48861;SDS011;34681;49.188;-0.374;2023-06-19T13:21:49;4.10;;;3.70;;
48861;SDS011;34681;49.188;-0.374;2023-06-19T13:24:15;3.53;;;3.33;;
48861;SDS011;34681;49.188;-0.374;2023-06-19T13:26:40;3.80;;;3.50;;
48861;SDS011;34681;49.188;-0.374;2023-06-19T13:29:06;4.10;;;3.80;;
48861;SDS011;34681;49.188;-0.374;2023-06-19T13:31:31;4.03;;;3.83;;
48861;SDS011;34681;49.188;-0.374;2023-06-19T13:33:56;4.03;;;3.73;;
48861;SDS011;34681;49.188;-0.374;2023-06-19T13:36:22;3.97;;;3.67;;
48861;SDS011;34681;49.188;-0.374;2023-06-19T13:38:48;4.10;;;3.80;;
48861;SDS011;34681;49.188;-0.374;2023-06-19T13:41:14;4.00;;;3.70;;
48861;SDS011;34681;49.188;-0.374;2023-06-19T13:43:39;4.00;;;3.70;;
48861;SDS011;34681;49.188;-0.374;2023-06-19T13:46:05;3.37;;;3.10;;
48861;SDS011;34681;49.188;-0.374;2023-06-19T13:48:31;3.27;;;3.07;;
48861;SDS011;34681;49.188;-0.374;2023-06-19T13:50:57;3.60;;;3.40;;
48861;SDS011;34681;49.188;-0.374;2023-06-19T13:53:24;3.87;;;3.33;;
48861;SDS011;34681;49.188;-0.374;2023-06-19T13:55:50;3.70;;;3.50;;
48861;SDS011;34681;49.188;-0.374;2023-06-19T13:58:15;2.90;;;2.60;;
48861;SDS011;34681;49.188;-0.374;2023-06-19T14:00:40;3.80;;;3.37;;
48861;SDS011;34681;49.188;-0.374;2023-06-19T14:03:05;3.13;;;2.60;;
48861;SDS011;34681;49.188;-0.374;2023-06-19T14:05:32;3.93;;;3.63;;
48861;SDS011;34681;49.188;-0.374;2023-06-19T14:08:01;4.00;;;3.60;;
48861;SDS011;34681;49.188;-0.374;2023-06-19T14:10:28;3.97;;;3.63;;
48861;SDS011;34681;49.188;-0.374;2023-06-19T14:12:53;3.23;;;2.93;;
48861;SDS011;34681;49.188;-0.374;2023-06-19T14:15:19;3.43;;;3.20;;
48861;SDS011;34681;49.188;-0.374;2023-06-19T14:17:45;3.57;;;3.27;;
48861;SDS011;34681;49.188;-0.374;2023-06-19T14:20:10;3.50;;;3.20;;
48861;SDS011;34681;49.188;-0.374;2023-06-19T14:22:36;3.10;;;2.90;;
48861;SDS011;34681;49.188;-0.374;2023-06-19T14:25:01;3.10;;;2.83;;
48861;SDS011;34681;49.188;-0.374;2023-06-19T14:27:27;3.77;;;3.47;;
48861;SDS011;34681;49.188;-0.374;2023-06-19T14:29:54;3.27;;;3.00;;